Terminal Aerodrome Forecast
Issued by NWS Jackson, MS

Home | Current Version | Previous Version | Text Only | Print | Product List | Glossary On
Versions: 1 2 3 4 5 6 7 8 9 10 11 12 13 14 15 16 17
773
FTUS44 KJAN 180520
TAFJAN
TAF
KJAN 180520Z 1806/1906 33008KT 4SM -RA BR VCSH BKN007 OVC017
     FM180700 02007KT P6SM BKN015 BKN050
     FM181300 06007KT P6SM VCSH BKN015 OVC050
     FM181900 14008KT P6SM BKN015 BKN050=

USA.gov is the U.S. government's official web portal to all federal, state and local government web resources and services.